sensor_id;sensor_type;location;lat;lon;timestamp;P1;durP1;ratioP1;P2;durP2;ratioP2
40755;SDS011;26461;45.630;9.418;2023-03-12T00:01:34;28.88;;;14.57;;
40755;SDS011;26461;45.630;9.418;2023-03-12T00:04:44;29.30;;;13.35;;
40755;SDS011;26461;45.630;9.418;2023-03-12T00:07:54;21.10;;;10.57;;
40755;SDS011;26461;45.630;9.418;2023-03-12T00:11:10;20.10;;;12.45;;
40755;SDS011;26461;45.630;9.418;2023-03-12T00:14:23;22.45;;;11.55;;
40755;SDS011;26461;45.630;9.418;2023-03-12T00:17:28;19.75;;;11.85;;
40755;SDS011;26461;45.630;9.418;2023-03-12T00:20:38;23.52;;;12.13;;
40755;SDS011;26461;45.630;9.418;2023-03-12T00:23:48;23.33;;;10.13;;
40755;SDS011;26461;45.630;9.418;2023-03-12T00:26:58;20.55;;;8.50;;
40755;SDS011;26461;45.630;9.418;2023-03-12T00:30:09;16.85;;;8.98;;
40755;SDS011;26461;45.630;9.418;2023-03-12T00:33:19;9.85;;;6.40;;
40755;SDS011;26461;45.630;9.418;2023-03-12T00:36:29;15.15;;;7.30;;
40755;SDS011;26461;45.630;9.418;2023-03-12T00:39:40;14.40;;;5.22;;
40755;SDS011;26461;45.630;9.418;2023-03-12T00:42:50;13.73;;;5.72;;
40755;SDS011;26461;45.630;9.418;2023-03-12T00:45:55;20.55;;;7.55;;
40755;SDS011;26461;45.630;9.418;2023-03-12T00:49:00;36.35;;;8.95;;
40755;SDS011;26461;45.630;9.418;2023-03-12T00:52:10;16.98;;;6.75;;
40755;SDS011;26461;45.630;9.418;2023-03-12T00:55:20;9.05;;;5.70;;
40755;SDS011;26461;45.630;9.418;2023-03-12T00:58:30;14.93;;;6.00;;
40755;SDS011;26461;45.630;9.418;2023-03-12T01:01:40;10.95;;;6.72;;
40755;SDS011;26461;45.630;9.418;2023-03-12T01:04:51;11.45;;;5.95;;
40755;SDS011;26461;45.630;9.418;2023-03-12T01:08:02;18.23;;;6.30;;
40755;SDS011;26461;45.630;9.418;2023-03-12T01:11:14;17.20;;;8.30;;
40755;SDS011;26461;45.630;9.418;2023-03-12T01:14:25;23.35;;;5.53;;
40755;SDS011;26461;45.630;9.418;2023-03-12T01:17:35;10.20;;;4.32;;
40755;SDS011;26461;45.630;9.418;2023-03-12T01:20:45;9.93;;;4.78;;
40755;SDS011;26461;45.630;9.418;2023-03-12T01:23:55;9.20;;;5.00;;
40755;SDS011;26461;45.630;9.418;2023-03-12T01:27:06;8.07;;;5.57;;
40755;SDS011;26461;45.630;9.418;2023-03-12T01:30:11;9.88;;;4.65;;
40755;SDS011;26461;45.630;9.418;2023-03-12T01:33:21;12.73;;;6.80;;
40755;SDS011;26461;45.630;9.418;2023-03-12T01:36:32;14.15;;;5.35;;
40755;SDS011;26461;45.630;9.418;2023-03-12T01:39:42;10.07;;;5.47;;
40755;SDS011;26461;45.630;9.418;2023-03-12T01:42:55;15.95;;;8.80;;
40755;SDS011;26461;45.630;9.418;2023-03-12T01:49:29;9.82;;;5.57;;
40755;SDS011;26461;45.630;9.418;2023-03-12T01:52:41;20.55;;;6.68;;
40755;SDS011;26461;45.630;9.418;2023-03-12T01:55:51;26.77;;;6.88;;
40755;SDS011;26461;45.630;9.418;2023-03-12T01:59:02;17.25;;;5.88;;
40755;SDS011;26461;45.630;9.418;2023-03-12T02:02:18;7.60;;;3.35;;
40755;SDS011;26461;45.630;9.418;2023-03-12T02:05:39;7.60;;;4.85;;
40755;SDS011;26461;45.630;9.418;2023-03-12T02:08:57;12.63;;;3.25;;
40755;SDS011;26461;45.630;9.418;2023-03-12T02:12:10;6.50;;;5.30;;
40755;SDS011;26461;45.630;9.418;2023-03-12T02:15:20;8.05;;;2.45;;
40755;SDS011;26461;45.630;9.418;2023-03-12T02:18:32;5.38;;;3.45;;
40755;SDS011;26461;45.630;9.418;2023-03-12T02:21:43;7.20;;;4.82;;
40755;SDS011;26461;45.630;9.418;2023-03-12T02:24:56;11.18;;;4.35;;
40755;SDS011;26461;45.630;9.418;2023-03-12T02:28:13;10.85;;;5.07;;
40755;SDS011;26461;45.630;9.418;2023-03-12T02:31:26;11.07;;;4.70;;
40755;SDS011;26461;45.630;9.418;2023-03-12T02:34:47;16.60;;;5.97;;
40755;SDS011;26461;45.630;9.418;2023-03-12T02:37:59;8.18;;;4.10;;
40755;SDS011;26461;45.630;9.418;2023-03-12T02:41:11;7.20;;;5.13;;
40755;SDS011;26461;45.630;9.418;2023-03-12T02:44:30;12.80;;;7.40;;
40755;SDS011;26461;45.630;9.418;2023-03-12T02:47:42;9.45;;;3.47;;
40755;SDS011;26461;45.630;9.418;2023-03-12T02:50:52;8.65;;;5.10;;
40755;SDS011;26461;45.630;9.418;2023-03-12T02:54:02;6.10;;;4.53;;
40755;SDS011;26461;45.630;9.418;2023-03-12T02:57:12;9.20;;;3.80;;
40755;SDS011;26461;45.630;9.418;2023-03-12T03:00:23;8.80;;;5.75;;
40755;SDS011;26461;45.630;9.418;2023-03-12T03:03:33;9.27;;;2.90;;
40755;SDS011;26461;45.630;9.418;2023-03-12T03:06:43;7.82;;;2.88;;
40755;SDS011;26461;45.630;9.418;2023-03-12T03:09:53;7.47;;;2.58;;
40755;SDS011;26461;45.630;9.418;2023-03-12T03:13:03;13.73;;;6.10;;
40755;SDS011;26461;45.630;9.418;2023-03-12T03:16:13;24.63;;;4.85;;
40755;SDS011;26461;45.630;9.418;2023-03-12T03:19:23;12.13;;;3.67;;
40755;SDS011;26461;45.630;9.418;2023-03-12T03:22:28;7.63;;;3.70;;
40755;SDS011;26461;45.630;9.418;2023-03-12T03:25:38;7.55;;;4.03;;
40755;SDS011;26461;45.630;9.418;2023-03-12T03:28:49;7.78;;;4.78;;
40755;SDS011;26461;45.630;9.418;2023-03-12T03:31:59;15.02;;;2.53;;
40755;SDS011;26461;45.630;9.418;2023-03-12T03:35:09;7.15;;;3.45;;
40755;SDS011;26461;45.630;9.418;2023-03-12T03:38:20;14.25;;;5.30;;
40755;SDS011;26461;45.630;9.418;2023-03-12T03:41:31;9.70;;;3.47;;
40755;SDS011;26461;45.630;9.418;2023-03-12T03:44:41;10.65;;;4.05;;
40755;SDS011;26461;45.630;9.418;2023-03-12T03:47:52;13.18;;;4.40;;
40755;SDS011;26461;45.630;9.418;2023-03-12T03:51:03;7.32;;;3.67;;
40755;SDS011;26461;45.630;9.418;2023-03-12T03:54:19;10.38;;;3.67;;
40755;SDS011;26461;45.630;9.418;2023-03-12T03:57:29;13.15;;;3.28;;
40755;SDS011;26461;45.630;9.418;2023-03-12T04:00:39;11.38;;;5.43;;
40755;SDS011;26461;45.630;9.418;2023-03-12T04:03:52;11.02;;;4.88;;
40755;SDS011;26461;45.630;9.418;2023-03-12T04:07:03;7.45;;;3.90;;
40755;SDS011;26461;45.630;9.418;2023-03-12T04:10:13;9.10;;;5.43;;
40755;SDS011;26461;45.630;9.418;2023-03-12T04:13:23;5.57;;;3.15;;
40755;SDS011;26461;45.630;9.418;2023-03-12T04:16:33;9.60;;;3.58;;
40755;SDS011;26461;45.630;9.418;2023-03-12T04:19:43;14.02;;;5.28;;
40755;SDS011;26461;45.630;9.418;2023-03-12T04:22:54;7.13;;;3.50;;
40755;SDS011;26461;45.630;9.418;2023-03-12T04:26:04;17.15;;;5.10;;
40755;SDS011;26461;45.630;9.418;2023-03-12T04:29:16;7.22;;;5.55;;
40755;SDS011;26461;45.630;9.418;2023-03-12T04:32:27;16.85;;;6.43;;
40755;SDS011;26461;45.630;9.418;2023-03-12T04:35:37;8.77;;;2.70;;
40755;SDS011;26461;45.630;9.418;2023-03-12T04:38:47;8.05;;;4.85;;
40755;SDS011;26461;45.630;9.418;2023-03-12T04:42:02;28.52;;;5.25;;
40755;SDS011;26461;45.630;9.418;2023-03-12T04:45:13;8.57;;;3.35;;
40755;SDS011;26461;45.630;9.418;2023-03-12T04:48:24;15.35;;;6.13;;
40755;SDS011;26461;45.630;9.418;2023-03-12T04:51:30;8.15;;;4.03;;
40755;SDS011;26461;45.630;9.418;2023-03-12T04:54:42;9.02;;;4.90;;
40755;SDS011;26461;45.630;9.418;2023-03-12T04:57:53;14.00;;;5.30;;
40755;SDS011;26461;45.630;9.418;2023-03-12T05:01:02;5.95;;;4.20;;
40755;SDS011;26461;45.630;9.418;2023-03-12T05:04:14;12.48;;;6.13;;
40755;SDS011;26461;45.630;9.418;2023-03-12T05:07:26;7.25;;;3.78;;
40755;SDS011;26461;45.630;9.418;2023-03-12T05:10:36;9.70;;;4.20;;
40755;SDS011;26461;45.630;9.418;2023-03-12T05:13:48;9.50;;;4.63;;
40755;SDS011;26461;45.630;9.418;2023-03-12T05:16:53;8.73;;;5.05;;
40755;SDS011;26461;45.630;9.418;2023-03-12T05:20:04;15.20;;;3.30;;
40755;SDS011;26461;45.630;9.418;2023-03-12T05:23:14;8.32;;;3.78;;
40755;SDS011;26461;45.630;9.418;2023-03-12T05:26:26;6.85;;;4.95;;
40755;SDS011;26461;45.630;9.418;2023-03-12T05:29:49;15.38;;;7.60;;
40755;SDS011;26461;45.630;9.418;2023-03-12T05:32:59;8.82;;;5.78;;
40755;SDS011;26461;45.630;9.418;2023-03-12T05:36:09;6.45;;;2.83;;
40755;SDS011;26461;45.630;9.418;2023-03-12T05:39:22;6.93;;;5.47;;
40755;SDS011;26461;45.630;9.418;2023-03-12T05:42:37;9.05;;;6.40;;
40755;SDS011;26461;45.630;9.418;2023-03-12T05:45:44;16.42;;;4.47;;
40755;SDS011;26461;45.630;9.418;2023-03-12T05:48:55;12.52;;;5.13;;
40755;SDS011;26461;45.630;9.418;2023-03-12T05:52:07;10.45;;;5.05;;
40755;SDS011;26461;45.630;9.418;2023-03-12T05:55:19;10.43;;;5.43;;
40755;SDS011;26461;45.630;9.418;2023-03-12T05:58:30;10.20;;;5.20;;
40755;SDS011;26461;45.630;9.418;2023-03-12T06:01:41;12.70;;;6.47;;
40755;SDS011;26461;45.630;9.418;2023-03-12T06:04:52;15.73;;;5.95;;
40755;SDS011;26461;45.630;9.418;2023-03-12T06:08:03;17.15;;;6.63;;
40755;SDS011;26461;45.630;9.418;2023-03-12T06:11:15;7.18;;;5.18;;
40755;SDS011;26461;45.630;9.418;2023-03-12T06:14:25;14.30;;;6.70;;
40755;SDS011;26461;45.630;9.418;2023-03-12T06:17:36;12.27;;;6.35;;
40755;SDS011;26461;45.630;9.418;2023-03-12T06:20:47;21.55;;;6.13;;
40755;SDS011;26461;45.630;9.418;2023-03-12T06:23:58;11.00;;;4.38;;
40755;SDS011;26461;45.630;9.418;2023-03-12T06:27:25;10.52;;;5.38;;
40755;SDS011;26461;45.630;9.418;2023-03-12T06:30:35;8.80;;;4.40;;
40755;SDS011;26461;45.630;9.418;2023-03-12T06:33:45;13.25;;;5.85;;
40755;SDS011;26461;45.630;9.418;2023-03-12T06:36:55;7.43;;;2.92;;
40755;SDS011;26461;45.630;9.418;2023-03-12T06:40:05;7.13;;;2.70;;
40755;SDS011;26461;45.630;9.418;2023-03-12T06:43:18;14.25;;;3.15;;
40755;SDS011;26461;45.630;9.418;2023-03-12T06:46:28;11.25;;;4.65;;
40755;SDS011;26461;45.630;9.418;2023-03-12T06:49:38;9.98;;;3.60;;
40755;SDS011;26461;45.630;9.418;2023-03-12T06:52:48;7.53;;;2.92;;
40755;SDS011;26461;45.630;9.418;2023-03-12T06:55:52;5.15;;;3.13;;
40755;SDS011;26461;45.630;9.418;2023-03-12T06:59:02;5.53;;;2.92;;
40755;SDS011;26461;45.630;9.418;2023-03-12T07:02:13;6.78;;;2.00;;
40755;SDS011;26461;45.630;9.418;2023-03-12T07:05:23;5.93;;;4.38;;
40755;SDS011;26461;45.630;9.418;2023-03-12T07:08:33;6.90;;;2.83;;
40755;SDS011;26461;45.630;9.418;2023-03-12T07:11:43;6.70;;;2.63;;
40755;SDS011;26461;45.630;9.418;2023-03-12T07:14:53;6.47;;;3.28;;
40755;SDS011;26461;45.630;9.418;2023-03-12T07:18:03;10.63;;;2.88;;
40755;SDS011;26461;45.630;9.418;2023-03-12T07:21:18;13.55;;;2.78;;
40755;SDS011;26461;45.630;9.418;2023-03-12T07:24:31;5.55;;;2.78;;
40755;SDS011;26461;45.630;9.418;2023-03-12T07:27:41;7.53;;;2.63;;
40755;SDS011;26461;45.630;9.418;2023-03-12T07:30:51;6.38;;;1.23;;
40755;SDS011;26461;45.630;9.418;2023-03-12T07:34:01;7.25;;;2.92;;
40755;SDS011;26461;45.630;9.418;2023-03-12T07:37:11;4.03;;;2.17;;
40755;SDS011;26461;45.630;9.418;2023-03-12T07:40:34;4.15;;;2.05;;
40755;SDS011;26461;45.630;9.418;2023-03-12T07:43:45;4.10;;;2.38;;
40755;SDS011;26461;45.630;9.418;2023-03-12T07:46:55;7.78;;;1.45;;
40755;SDS011;26461;45.630;9.418;2023-03-12T07:50:04;5.00;;;1.73;;
40755;SDS011;26461;45.630;9.418;2023-03-12T07:53:15;3.35;;;1.92;;
40755;SDS011;26461;45.630;9.418;2023-03-12T07:56:25;5.75;;;1.88;;
40755;SDS011;26461;45.630;9.418;2023-03-12T07:59:35;4.78;;;1.90;;
40755;SDS011;26461;45.630;9.418;2023-03-12T08:02:46;4.63;;;1.58;;
40755;SDS011;26461;45.630;9.418;2023-03-12T08:06:00;2.42;;;0.70;;
40755;SDS011;26461;45.630;9.418;2023-03-12T08:09:11;6.50;;;1.30;;
40755;SDS011;26461;45.630;9.418;2023-03-12T08:12:21;4.20;;;2.90;;
40755;SDS011;26461;45.630;9.418;2023-03-12T08:15:31;8.68;;;1.75;;
40755;SDS011;26461;45.630;9.418;2023-03-12T08:18:41;3.00;;;0.98;;
40755;SDS011;26461;45.630;9.418;2023-03-12T08:21:51;5.18;;;1.60;;
40755;SDS011;26461;45.630;9.418;2023-03-12T08:25:01;3.90;;;1.90;;
40755;SDS011;26461;45.630;9.418;2023-03-12T08:28:11;3.50;;;1.02;;
40755;SDS011;26461;45.630;9.418;2023-03-12T08:31:22;3.53;;;0.93;;
40755;SDS011;26461;45.630;9.418;2023-03-12T08:34:26;15.15;;;2.22;;
40755;SDS011;26461;45.630;9.418;2023-03-12T08:37:36;4.28;;;1.25;;
40755;SDS011;26461;45.630;9.418;2023-03-12T08:40:52;5.75;;;0.90;;
40755;SDS011;26461;45.630;9.418;2023-03-12T08:44:06;12.80;;;1.35;;
40755;SDS011;26461;45.630;9.418;2023-03-12T08:47:16;9.82;;;1.40;;
40755;SDS011;26461;45.630;9.418;2023-03-12T08:50:26;4.15;;;1.65;;
40755;SDS011;26461;45.630;9.418;2023-03-12T08:53:37;4.88;;;0.98;;
40755;SDS011;26461;45.630;9.418;2023-03-12T08:56:50;3.00;;;1.35;;
40755;SDS011;26461;45.630;9.418;2023-03-12T09:00:00;2.92;;;0.77;;
40755;SDS011;26461;45.630;9.418;2023-03-12T09:03:13;3.15;;;1.00;;
40755;SDS011;26461;45.630;9.418;2023-03-12T09:06:23;8.25;;;1.30;;
40755;SDS011;26461;45.630;9.418;2023-03-12T09:09:33;9.77;;;1.65;;
40755;SDS011;26461;45.630;9.418;2023-03-12T09:12:43;13.05;;;2.30;;
40755;SDS011;26461;45.630;9.418;2023-03-12T09:15:56;5.88;;;1.33;;
40755;SDS011;26461;45.630;9.418;2023-03-12T09:19:03;8.07;;;1.15;;
40755;SDS011;26461;45.630;9.418;2023-03-12T09:22:13;6.60;;;0.60;;
40755;SDS011;26461;45.630;9.418;2023-03-12T09:25:23;2.85;;;0.63;;
40755;SDS011;26461;45.630;9.418;2023-03-12T09:28:33;5.85;;;1.35;;
40755;SDS011;26461;45.630;9.418;2023-03-12T09:31:42;10.68;;;1.48;;
40755;SDS011;26461;45.630;9.418;2023-03-12T09:34:52;3.53;;;1.02;;
40755;SDS011;26461;45.630;9.418;2023-03-12T09:38:02;5.90;;;1.88;;
40755;SDS011;26461;45.630;9.418;2023-03-12T09:41:17;3.70;;;1.33;;
40755;SDS011;26461;45.630;9.418;2023-03-12T09:44:38;3.40;;;0.85;;
40755;SDS011;26461;45.630;9.418;2023-03-12T09:48:00;2.50;;;0.77;;
40755;SDS011;26461;45.630;9.418;2023-03-12T09:51:33;4.25;;;1.77;;
40755;SDS011;26461;45.630;9.418;2023-03-12T09:54:51;11.15;;;1.05;;
40755;SDS011;26461;45.630;9.418;2023-03-12T09:58:03;3.15;;;0.90;;
40755;SDS011;26461;45.630;9.418;2023-03-12T10:01:35;4.25;;;0.50;;
40755;SDS011;26461;45.630;9.418;2023-03-12T10:05:06;8.38;;;2.03;;
40755;SDS011;26461;45.630;9.418;2023-03-12T10:08:30;5.45;;;1.52;;
40755;SDS011;26461;45.630;9.418;2023-03-12T10:11:57;2.50;;;0.60;;
40755;SDS011;26461;45.630;9.418;2023-03-12T10:15:26;5.88;;;1.88;;
40755;SDS011;26461;45.630;9.418;2023-03-12T10:18:53;4.57;;;1.67;;
40755;SDS011;26461;45.630;9.418;2023-03-12T10:26:43;4.03;;;1.00;;
40755;SDS011;26461;45.630;9.418;2023-03-12T10:29:57;4.75;;;1.05;;
40755;SDS011;26461;45.630;9.418;2023-03-12T10:33:10;8.82;;;0.82;;
40755;SDS011;26461;45.630;9.418;2023-03-12T10:36:28;4.75;;;0.95;;
40755;SDS011;26461;45.630;9.418;2023-03-12T10:39:47;3.85;;;1.08;;
40755;SDS011;26461;45.630;9.418;2023-03-12T10:42:57;2.92;;;1.17;;
40755;SDS011;26461;45.630;9.418;2023-03-12T10:49:38;8.60;;;1.15;;
40755;SDS011;26461;45.630;9.418;2023-03-12T10:52:49;5.13;;;1.70;;
40755;SDS011;26461;45.630;9.418;2023-03-12T10:59:13;3.67;;;1.23;;
40755;SDS011;26461;45.630;9.418;2023-03-12T11:05:47;3.85;;;1.38;;
40755;SDS011;26461;45.630;9.418;2023-03-12T11:09:05;3.58;;;0.80;;
40755;SDS011;26461;45.630;9.418;2023-03-12T11:12:28;4.25;;;1.67;;
40755;SDS011;26461;45.630;9.418;2023-03-12T11:15:40;5.43;;;1.85;;
40755;SDS011;26461;45.630;9.418;2023-03-12T11:18:55;4.40;;;1.48;;
40755;SDS011;26461;45.630;9.418;2023-03-12T11:22:10;7.18;;;0.82;;
40755;SDS011;26461;45.630;9.418;2023-03-12T11:25:21;2.10;;;0.60;;
40755;SDS011;26461;45.630;9.418;2023-03-12T11:28:38;3.42;;;1.30;;
40755;SDS011;26461;45.630;9.418;2023-03-12T11:35:08;5.90;;;1.60;;
40755;SDS011;26461;45.630;9.418;2023-03-12T11:56:06;4.55;;;0.95;;
40755;SDS011;26461;45.630;9.418;2023-03-12T12:02:36;6.25;;;1.50;;
40755;SDS011;26461;45.630;9.418;2023-03-12T12:06:00;3.50;;;1.20;;
40755;SDS011;26461;45.630;9.418;2023-03-12T12:23:16;3.83;;;1.42;;
40755;SDS011;26461;45.630;9.418;2023-03-12T12:40:50;5.72;;;3.15;;
40755;SDS011;26461;45.630;9.418;2023-03-12T12:44:23;4.70;;;1.90;;
40755;SDS011;26461;45.630;9.418;2023-03-12T12:47:56;5.38;;;1.00;;
40755;SDS011;26461;45.630;9.418;2023-03-12T12:51:08;3.72;;;1.45;;
40755;SDS011;26461;45.630;9.418;2023-03-12T12:54:26;5.03;;;1.20;;
40755;SDS011;26461;45.630;9.418;2023-03-12T12:57:41;3.38;;;0.90;;
40755;SDS011;26461;45.630;9.418;2023-03-12T13:00:57;4.18;;;1.38;;
40755;SDS011;26461;45.630;9.418;2023-03-12T13:04:10;6.93;;;1.25;;
40755;SDS011;26461;45.630;9.418;2023-03-12T13:13:45;5.35;;;2.00;;
40755;SDS011;26461;45.630;9.418;2023-03-12T13:17:06;8.82;;;1.20;;
40755;SDS011;26461;45.630;9.418;2023-03-12T13:24:21;6.00;;;1.27;;
40755;SDS011;26461;45.630;9.418;2023-03-12T13:27:58;6.32;;;1.00;;
40755;SDS011;26461;45.630;9.418;2023-03-12T13:34:43;6.85;;;2.90;;
40755;SDS011;26461;45.630;9.418;2023-03-12T13:41:05;5.82;;;1.65;;
40755;SDS011;26461;45.630;9.418;2023-03-12T13:47:40;3.60;;;1.45;;
40755;SDS011;26461;45.630;9.418;2023-03-12T13:50:56;6.20;;;2.78;;
40755;SDS011;26461;45.630;9.418;2023-03-12T13:54:11;9.73;;;1.33;;
40755;SDS011;26461;45.630;9.418;2023-03-12T13:57:28;4.90;;;1.67;;
40755;SDS011;26461;45.630;9.418;2023-03-12T14:00:42;3.58;;;1.63;;
40755;SDS011;26461;45.630;9.418;2023-03-12T14:04:05;6.70;;;2.15;;
40755;SDS011;26461;45.630;9.418;2023-03-12T14:07:29;4.60;;;1.45;;
40755;SDS011;26461;45.630;9.418;2023-03-12T14:17:58;4.57;;;1.65;;
40755;SDS011;26461;45.630;9.418;2023-03-12T14:21:13;5.20;;;1.70;;
40755;SDS011;26461;45.630;9.418;2023-03-12T14:24:32;7.38;;;1.63;;
40755;SDS011;26461;45.630;9.418;2023-03-12T14:27:47;3.88;;;1.15;;
40755;SDS011;26461;45.630;9.418;2023-03-12T14:31:02;6.00;;;1.55;;
40755;SDS011;26461;45.630;9.418;2023-03-12T14:34:22;8.82;;;1.02;;
40755;SDS011;26461;45.630;9.418;2023-03-12T14:37:37;3.80;;;1.27;;
40755;SDS011;26461;45.630;9.418;2023-03-12T14:40:56;4.75;;;2.25;;
40755;SDS011;26461;45.630;9.418;2023-03-12T14:44:27;5.10;;;1.60;;
40755;SDS011;26461;45.630;9.418;2023-03-12T14:47:41;5.45;;;2.47;;
40755;SDS011;26461;45.630;9.418;2023-03-12T14:50:52;3.47;;;1.33;;
40755;SDS011;26461;45.630;9.418;2023-03-12T14:54:04;4.95;;;1.17;;
40755;SDS011;26461;45.630;9.418;2023-03-12T14:57:25;4.32;;;0.98;;
40755;SDS011;26461;45.630;9.418;2023-03-12T15:00:35;5.18;;;2.25;;
40755;SDS011;26461;45.630;9.418;2023-03-12T15:03:45;3.70;;;1.23;;
40755;SDS011;26461;45.630;9.418;2023-03-12T15:07:03;4.80;;;1.08;;
40755;SDS011;26461;45.630;9.418;2023-03-12T15:10:24;4.38;;;1.08;;
40755;SDS011;26461;45.630;9.418;2023-03-12T15:13:35;7.47;;;1.58;;
40755;SDS011;26461;45.630;9.418;2023-03-12T15:16:48;3.33;;;0.82;;
40755;SDS011;26461;45.630;9.418;2023-03-12T15:19:58;4.60;;;1.05;;
40755;SDS011;26461;45.630;9.418;2023-03-12T15:23:14;4.72;;;1.98;;
40755;SDS011;26461;45.630;9.418;2023-03-12T15:29:31;6.75;;;1.05;;
40755;SDS011;26461;45.630;9.418;2023-03-12T15:32:41;3.00;;;0.70;;
40755;SDS011;26461;45.630;9.418;2023-03-12T15:39:27;3.30;;;0.65;;
40755;SDS011;26461;45.630;9.418;2023-03-12T15:42:39;3.55;;;0.90;;
40755;SDS011;26461;45.630;9.418;2023-03-12T15:45:47;3.97;;;0.98;;
40755;SDS011;26461;45.630;9.418;2023-03-12T15:49:04;4.55;;;3.25;;
40755;SDS011;26461;45.630;9.418;2023-03-12T15:52:28;5.25;;;1.13;;
40755;SDS011;26461;45.630;9.418;2023-03-12T15:55:35;3.67;;;2.03;;
40755;SDS011;26461;45.630;9.418;2023-03-12T15:58:45;5.07;;;2.33;;
40755;SDS011;26461;45.630;9.418;2023-03-12T16:01:55;5.93;;;0.80;;
40755;SDS011;26461;45.630;9.418;2023-03-12T16:05:05;4.57;;;1.33;;
40755;SDS011;26461;45.630;9.418;2023-03-12T16:11:31;6.65;;;1.75;;
40755;SDS011;26461;45.630;9.418;2023-03-12T16:14:43;3.25;;;1.05;;
40755;SDS011;26461;45.630;9.418;2023-03-12T16:17:54;4.88;;;1.33;;
40755;SDS011;26461;45.630;9.418;2023-03-12T16:21:04;2.40;;;0.60;;
40755;SDS011;26461;45.630;9.418;2023-03-12T16:24:14;6.40;;;1.70;;
40755;SDS011;26461;45.630;9.418;2023-03-12T16:27:25;11.30;;;3.83;;
40755;SDS011;26461;45.630;9.418;2023-03-12T16:30:31;3.47;;;1.30;;
40755;SDS011;26461;45.630;9.418;2023-03-12T16:33:38;5.55;;;1.52;;
40755;SDS011;26461;45.630;9.418;2023-03-12T16:36:48;4.85;;;2.30;;
40755;SDS011;26461;45.630;9.418;2023-03-12T16:39:58;5.53;;;1.38;;
40755;SDS011;26461;45.630;9.418;2023-03-12T16:43:04;2.97;;;1.27;;
40755;SDS011;26461;45.630;9.418;2023-03-12T16:46:28;5.05;;;1.77;;
40755;SDS011;26461;45.630;9.418;2023-03-12T16:49:39;7.03;;;2.30;;
40755;SDS011;26461;45.630;9.418;2023-03-12T16:52:50;11.55;;;3.85;;
40755;SDS011;26461;45.630;9.418;2023-03-12T16:56:00;3.78;;;1.08;;
40755;SDS011;26461;45.630;9.418;2023-03-12T16:59:16;3.60;;;1.00;;
40755;SDS011;26461;45.630;9.418;2023-03-12T17:02:33;4.10;;;1.83;;
40755;SDS011;26461;45.630;9.418;2023-03-12T17:05:44;4.15;;;1.00;;
40755;SDS011;26461;45.630;9.418;2023-03-12T17:08:54;5.50;;;2.10;;
40755;SDS011;26461;45.630;9.418;2023-03-12T17:12:05;7.15;;;1.42;;
40755;SDS011;26461;45.630;9.418;2023-03-12T17:18:39;8.63;;;4.60;;
40755;SDS011;26461;45.630;9.418;2023-03-12T17:21:49;10.20;;;2.20;;
40755;SDS011;26461;45.630;9.418;2023-03-12T17:25:00;5.80;;;2.65;;
40755;SDS011;26461;45.630;9.418;2023-03-12T17:28:11;7.63;;;2.45;;
40755;SDS011;26461;45.630;9.418;2023-03-12T17:31:22;6.32;;;2.15;;
40755;SDS011;26461;45.630;9.418;2023-03-12T17:34:32;6.07;;;2.97;;
40755;SDS011;26461;45.630;9.418;2023-03-12T17:37:43;3.88;;;2.15;;
40755;SDS011;26461;45.630;9.418;2023-03-12T17:40:53;9.90;;;1.77;;
40755;SDS011;26461;45.630;9.418;2023-03-12T17:44:02;7.30;;;2.47;;
40755;SDS011;26461;45.630;9.418;2023-03-12T17:47:13;5.15;;;2.70;;
40755;SDS011;26461;45.630;9.418;2023-03-12T17:50:23;6.45;;;1.65;;
40755;SDS011;26461;45.630;9.418;2023-03-12T17:53:33;7.85;;;3.85;;
40755;SDS011;26461;45.630;9.418;2023-03-12T17:56:42;11.35;;;2.30;;
40755;SDS011;26461;45.630;9.418;2023-03-12T17:59:52;9.98;;;4.15;;
40755;SDS011;26461;45.630;9.418;2023-03-12T18:03:02;10.30;;;3.00;;
40755;SDS011;26461;45.630;9.418;2023-03-12T18:06:12;6.55;;;3.35;;
40755;SDS011;26461;45.630;9.418;2023-03-12T18:09:22;6.68;;;2.45;;
40755;SDS011;26461;45.630;9.418;2023-03-12T18:12:32;11.93;;;3.47;;
40755;SDS011;26461;45.630;9.418;2023-03-12T18:15:48;13.77;;;3.42;;
40755;SDS011;26461;45.630;9.418;2023-03-12T18:19:00;5.95;;;4.38;;
40755;SDS011;26461;45.630;9.418;2023-03-12T18:22:04;8.80;;;3.03;;
40755;SDS011;26461;45.630;9.418;2023-03-12T18:25:15;13.20;;;4.70;;
40755;SDS011;26461;45.630;9.418;2023-03-12T18:28:25;7.53;;;3.30;;
40755;SDS011;26461;45.630;9.418;2023-03-12T18:31:35;5.80;;;3.03;;
40755;SDS011;26461;45.630;9.418;2023-03-12T18:34:46;9.63;;;4.22;;
40755;SDS011;26461;45.630;9.418;2023-03-12T18:37:56;8.02;;;4.68;;
40755;SDS011;26461;45.630;9.418;2023-03-12T18:41:07;9.07;;;4.70;;
40755;SDS011;26461;45.630;9.418;2023-03-12T18:44:20;5.53;;;2.80;;
40755;SDS011;26461;45.630;9.418;2023-03-12T18:47:30;8.82;;;4.75;;
40755;SDS011;26461;45.630;9.418;2023-03-12T18:50:42;7.65;;;3.58;;
40755;SDS011;26461;45.630;9.418;2023-03-12T18:53:52;12.07;;;4.90;;
40755;SDS011;26461;45.630;9.418;2023-03-12T18:57:02;8.70;;;4.82;;
40755;SDS011;26461;45.630;9.418;2023-03-12T19:00:13;8.93;;;4.85;;
40755;SDS011;26461;45.630;9.418;2023-03-12T19:03:27;9.88;;;5.10;;
40755;SDS011;26461;45.630;9.418;2023-03-12T19:06:37;10.63;;;4.25;;
40755;SDS011;26461;45.630;9.418;2023-03-12T19:09:47;10.20;;;3.83;;
40755;SDS011;26461;45.630;9.418;2023-03-12T19:12:51;8.18;;;5.88;;
40755;SDS011;26461;45.630;9.418;2023-03-12T19:16:03;9.80;;;5.70;;
40755;SDS011;26461;45.630;9.418;2023-03-12T19:19:16;10.05;;;6.40;;
40755;SDS011;26461;45.630;9.418;2023-03-12T19:22:26;6.53;;;4.65;;
40755;SDS011;26461;45.630;9.418;2023-03-12T19:25:36;8.45;;;3.78;;
40755;SDS011;26461;45.630;9.418;2023-03-12T19:28:46;8.85;;;4.63;;
40755;SDS011;26461;45.630;9.418;2023-03-12T19:31:55;10.68;;;5.78;;
40755;SDS011;26461;45.630;9.418;2023-03-12T19:35:06;14.25;;;9.07;;
40755;SDS011;26461;45.630;9.418;2023-03-12T19:38:19;11.10;;;2.90;;
40755;SDS011;26461;45.630;9.418;2023-03-12T19:41:29;12.75;;;5.68;;
40755;SDS011;26461;45.630;9.418;2023-03-12T19:44:38;7.88;;;4.82;;
40755;SDS011;26461;45.630;9.418;2023-03-12T19:47:49;9.15;;;4.75;;
40755;SDS011;26461;45.630;9.418;2023-03-12T19:51:05;11.05;;;5.40;;
40755;SDS011;26461;45.630;9.418;2023-03-12T19:54:17;19.20;;;4.55;;
40755;SDS011;26461;45.630;9.418;2023-03-12T19:57:32;9.20;;;4.40;;
40755;SDS011;26461;45.630;9.418;2023-03-12T20:00:42;7.72;;;4.82;;
40755;SDS011;26461;45.630;9.418;2023-03-12T20:03:53;12.27;;;6.03;;
40755;SDS011;26461;45.630;9.418;2023-03-12T20:07:03;9.02;;;6.57;;
40755;SDS011;26461;45.630;9.418;2023-03-12T20:10:13;9.63;;;6.00;;
40755;SDS011;26461;45.630;9.418;2023-03-12T20:13:24;11.07;;;6.35;;
40755;SDS011;26461;45.630;9.418;2023-03-12T20:16:34;11.95;;;8.30;;
40755;SDS011;26461;45.630;9.418;2023-03-12T20:19:39;25.95;;;8.32;;
40755;SDS011;26461;45.630;9.418;2023-03-12T20:22:50;12.07;;;7.40;;
40755;SDS011;26461;45.630;9.418;2023-03-12T20:26:00;8.73;;;6.82;;
40755;SDS011;26461;45.630;9.418;2023-03-12T20:29:11;8.05;;;6.30;;
40755;SDS011;26461;45.630;9.418;2023-03-12T20:32:16;12.13;;;6.60;;
40755;SDS011;26461;45.630;9.418;2023-03-12T20:35:27;10.00;;;6.80;;
40755;SDS011;26461;45.630;9.418;2023-03-12T20:38:38;17.48;;;6.88;;
40755;SDS011;26461;45.630;9.418;2023-03-12T20:41:51;13.45;;;9.70;;
40755;SDS011;26461;45.630;9.418;2023-03-12T20:44:56;10.07;;;6.68;;
40755;SDS011;26461;45.630;9.418;2023-03-12T20:48:06;8.27;;;5.22;;
40755;SDS011;26461;45.630;9.418;2023-03-12T20:51:16;22.58;;;9.70;;
40755;SDS011;26461;45.630;9.418;2023-03-12T20:54:26;9.07;;;6.10;;
40755;SDS011;26461;45.630;9.418;2023-03-12T20:57:36;14.02;;;7.35;;
40755;SDS011;26461;45.630;9.418;2023-03-12T21:00:41;10.50;;;6.90;;
40755;SDS011;26461;45.630;9.418;2023-03-12T21:03:56;7.15;;;4.85;;